Time;durP1;ratioP1;P1;durP2;ratioP2;P2;SDS_P1;SDS_P2;PMS_P1;PMS_P2;Temp;Humidity;BMP_temperature;BMP_pressure;BME280_temperature;BME280_humidity;BME280_pressure;Samples;Min_cycle;Max_cycle;Signal;HPM_P1;HPM_P2
2023/04/10 00:00:56;;;;;;;6.63;4.28;;;9.80;99.90;;;;;;4926138;29;20036;-88
2023/04/10 00:03:23;;;;;;;8.27;4.50;;;9.90;99.90;;;;;;4924012;29;20031;-91
2023/04/10 00:05:50;;;;;;;9.65;3.75;;;9.90;99.90;;;;;;4923913;29;20055;-89
2023/04/10 00:08:16;;;;;;;6.93;3.83;;;9.90;99.90;;;;;;4923384;29;20031;-89
2023/04/10 00:10:43;;;;;;;9.30;3.70;;;9.90;99.90;;;;;;4923384;29;20032;-93
2023/04/10 00:13:09;;;;;;;8.73;3.92;;;9.90;99.90;;;;;;4923541;29;20058;-89
2023/04/10 00:15:36;;;;;;;7.43;3.85;;;10.00;99.90;;;;;;4923037;29;20407;-89
2023/04/10 00:18:03;;;;;;;5.85;3.92;;;9.90;99.90;;;;;;4923315;29;20035;-91
2023/04/10 00:20:29;;;;;;;9.65;4.07;;;9.90;99.90;;;;;;4907861;29;20051;-90
2023/04/10 00:22:56;;;;;;;9.70;3.75;;;9.90;99.90;;;;;;4923402;29;20032;-90
2023/04/10 00:25:22;;;;;;;8.13;4.22;;;9.90;99.90;;;;;;4923095;29;20380;-89
2023/04/10 00:27:49;;;;;;;8.57;4.63;;;9.90;99.90;;;;;;4929433;29;20031;-89
2023/04/10 00:30:15;;;;;;;8.73;4.28;;;9.90;99.90;;;;;;4931415;29;20047;-92
2023/04/10 00:32:42;;;;;;;7.85;4.10;;;9.90;99.90;;;;;;4939188;29;20024;-90
2023/04/10 00:35:09;;;;;;;9.48;4.32;;;9.90;99.90;;;;;;4922875;29;20079;-89
2023/04/10 00:37:36;;;;;;;6.75;4.68;;;9.90;99.90;;;;;;4925626;29;20050;-91
2023/04/10 00:40:05;;;;;;;10.20;4.90;;;9.90;99.90;;;;;;4923200;29;20027;-90
2023/04/10 00:42:31;;;;;;;8.02;4.40;;;9.90;99.90;;;;;;4922884;29;20600;-90
2023/04/10 00:44:59;;;;;;;11.65;5.03;;;9.90;99.90;;;;;;4922873;29;20028;-91
2023/04/10 00:47:27;;;;;;;9.20;5.18;;;9.90;99.90;;;;;;4922507;29;20062;-91
2023/04/10 00:49:54;;;;;;;8.65;4.80;;;9.90;99.90;;;;;;4922562;29;20114;-90
2023/04/10 00:52:20;;;;;;;5.93;4.18;;;9.80;99.90;;;;;;4922157;29;20484;-91
2023/04/10 00:54:47;;;;;;;8.13;5.10;;;9.80;99.90;;;;;;4938374;29;20100;-92
2023/04/10 00:57:14;;;;;;;9.93;4.40;;;9.70;99.90;;;;;;4938153;29;20031;-89
2023/04/10 00:59:41;;;;;;;9.90;4.40;;;9.80;99.90;;;;;;4922477;29;20038;-89
2023/04/10 01:02:09;;;;;;;8.15;4.22;;;9.70;99.90;;;;;;4922204;29;20054;-90
2023/04/10 01:04:37;;;;;;;7.82;3.97;;;9.70;99.90;;;;;;4938381;29;20032;-90
2023/04/10 01:07:34;;;;;;;10.50;4.10;;;9.70;99.90;;;;;;4923408;29;20038;-90
2023/04/10 01:10:17;;;;;;;8.63;4.70;;;9.70;99.90;;;;;;4922386;29;20485;-89
2023/04/10 01:13:07;;;;;;;7.85;4.15;;;9.60;99.90;;;;;;4906671;29;20035;-90
2023/04/10 01:15:52;;;;;;;9.95;4.45;;;9.60;99.90;;;;;;4937759;29;20046;-89
2023/04/10 01:18:49;;;;;;;6.40;4.68;;;9.60;99.90;;;;;;4937614;29;20098;-89
2023/04/10 01:21:17;;;;;;;9.38;4.03;;;9.60;99.90;;;;;;4903157;29;20044;-91
2023/04/10 01:24:05;;;;;;;6.63;4.07;;;9.60;99.90;;;;;;4903030;29;20024;-90
2023/04/10 01:26:45;;;;;;;5.38;3.67;;;9.60;99.90;;;;;;4929841;29;20031;-90
2023/04/10 01:29:19;;;;;;;7.47;4.03;;;9.60;99.90;;;;;;4923690;29;20035;-90
2023/04/10 01:32:10;;;;;;;7.32;4.07;;;9.60;99.90;;;;;;4922260;29;20028;-90
2023/04/10 01:34:43;;;;;;;5.90;3.80;;;9.70;99.90;;;;;;4921874;29;20123;-90
2023/04/10 01:37:20;;;;;;;8.35;3.83;;;9.70;99.90;;;;;;4937602;29;20039;-91
2023/04/10 01:39:53;;;;;;;9.50;4.00;;;9.70;99.90;;;;;;4921652;29;20034;-91
2023/04/10 01:42:22;;;;;;;7.65;3.72;;;9.70;99.90;;;;;;4937508;29;20039;-90
2023/04/10 01:44:49;;;;;;;5.40;3.90;;;9.70;99.90;;;;;;4905851;29;20023;-90
2023/04/10 01:47:17;;;;;;;9.60;4.22;;;9.80;99.90;;;;;;4905385;29;20055;-90
2023/04/10 01:49:46;;;;;;;6.75;4.05;;;9.80;99.90;;;;;;4937552;29;20027;-91
2023/04/10 01:52:15;;;;;;;6.68;4.18;;;9.80;99.90;;;;;;4937432;29;20035;-90
2023/04/10 01:54:47;;;;;;;6.30;4.00;;;9.70;99.90;;;;;;4937251;29;20054;-89
2023/04/10 01:57:20;;;;;;;5.68;4.10;;;9.70;99.90;;;;;;4926569;29;20146;-90
2023/04/10 01:59:52;;;;;;;7.80;3.90;;;9.70;99.90;;;;;;4906445;29;20091;-89
2023/04/10 02:02:19;;;;;;;8.82;4.07;;;9.60;99.90;;;;;;4921139;29;20107;-89
2023/04/10 02:04:50;;;;;;;9.82;4.60;;;9.60;99.90;;;;;;4921155;29;20027;-90
2023/04/10 02:07:27;;;;;;;6.85;3.72;;;9.60;99.90;;;;;;4920944;29;20043;-91
2023/04/10 02:10:10;;;;;;;7.60;3.33;;;9.60;99.90;;;;;;4939766;29;20032;-90
2023/04/10 02:12:52;;;;;;;5.22;2.95;;;9.60;99.90;;;;;;4921870;29;20031;-91
2023/04/10 02:15:26;;;;;;;5.15;3.17;;;9.60;99.90;;;;;;4937283;29;20027;-90
2023/04/10 02:17:54;;;;;;;6.85;3.10;;;9.70;99.90;;;;;;4936684;29;20032;-91
2023/04/10 02:20:23;;;;;;;7.18;2.85;;;9.70;99.90;;;;;;4904238;29;20028;-90
2023/04/10 02:22:51;;;;;;;7.80;3.08;;;9.60;99.90;;;;;;4920751;29;20040;-90
2023/04/10 02:25:17;;;;;;;5.95;3.25;;;9.70;99.90;;;;;;4904927;29;20034;-91
2023/04/10 02:27:43;;;;;;;4.70;3.10;;;9.70;99.90;;;;;;4901706;29;20040;-90
2023/04/10 02:30:10;;;;;;;6.45;3.47;;;9.60;99.90;;;;;;4936252;29;20500;-90
2023/04/10 02:32:37;;;;;;;4.40;3.00;;;9.60;99.90;;;;;;4934892;29;20405;-92
2023/04/10 02:35:07;;;;;;;3.70;3.08;;;9.60;99.90;;;;;;4902032;29;20452;-90
2023/04/10 02:37:36;;;;;;;8.00;2.75;;;9.50;99.90;;;;;;4936721;29;20032;-91
2023/04/10 02:40:04;;;;;;;6.13;2.80;;;9.40;99.90;;;;;;4904866;29;20027;-92
2023/04/10 02:42:41;;;;;;;6.35;3.42;;;9.40;99.90;;;;;;4937728;29;20138;-91
2023/04/10 02:45:09;;;;;;;4.35;3.25;;;9.30;99.90;;;;;;4921157;29;20032;-90
2023/04/10 02:47:39;;;;;;;5.43;3.67;;;9.30;99.90;;;;;;4901340;29;20063;-90
2023/04/10 02:50:09;;;;;;;4.25;3.55;;;9.30;99.90;;;;;;4933057;29;20068;-90
2023/04/10 02:52:38;;;;;;;6.43;3.95;;;9.30;99.90;;;;;;4918252;29;20111;-89
2023/04/10 02:55:05;;;;;;;4.47;3.67;;;9.20;99.90;;;;;;4920898;29;20036;-90
2023/04/10 02:57:36;;;;;;;4.88;3.40;;;9.20;99.90;;;;;;4936161;29;20031;-89
2023/04/10 03:00:04;;;;;;;5.47;3.60;;;9.20;99.90;;;;;;4935882;29;20028;-93
2023/04/10 03:02:49;;;;;;;6.43;3.75;;;9.20;99.90;;;;;;4936147;29;20050;-91
2023/04/10 03:05:19;;;;;;;4.68;3.33;;;9.20;99.90;;;;;;4935915;29;20101;-89
2023/04/10 03:07:46;;;;;;;3.78;3.30;;;9.00;99.90;;;;;;4904239;29;20036;-90
2023/04/10 03:10:13;;;;;;;6.70;4.10;;;9.00;99.90;;;;;;4916995;29;20120;-90
2023/04/10 03:12:39;;;;;;;5.28;3.72;;;9.00;99.90;;;;;;4932913;29;20027;-90
2023/04/10 03:15:06;;;;;;;5.30;4.05;;;9.00;99.90;;;;;;4940479;29;20035;-90
2023/04/10 03:17:33;;;;;;;5.93;3.80;;;9.00;99.90;;;;;;4906136;29;20030;-89
2023/04/10 03:20:00;;;;;;;6.38;4.93;;;9.00;99.90;;;;;;4932655;29;20032;-91
2023/04/10 03:22:30;;;;;;;7.53;4.40;;;9.00;99.90;;;;;;4932583;29;20067;-90
2023/04/10 03:24:57;;;;;;;8.20;5.28;;;9.00;99.90;;;;;;4932772;29;20028;-89
2023/04/10 03:27:23;;;;;;;8.32;5.40;;;9.00;99.90;;;;;;4935768;29;20034;-91
2023/04/10 03:29:50;;;;;;;8.55;5.78;;;8.90;99.90;;;;;;4920165;29;20024;-90
2023/04/10 03:32:17;;;;;;;9.65;6.28;;;8.90;99.90;;;;;;4908653;29;20032;-90
2023/04/10 03:34:44;;;;;;;11.80;6.38;;;8.90;99.90;;;;;;4923870;29;20110;-89
2023/04/10 03:37:10;;;;;;;10.82;6.95;;;8.90;99.90;;;;;;4939625;29;20068;-91
2023/04/10 03:39:37;;;;;;;9.25;6.90;;;8.90;99.90;;;;;;4939345;29;20036;-89
2023/04/10 03:42:03;;;;;;;13.88;8.60;;;8.80;99.90;;;;;;4923856;29;20043;-89
2023/04/10 03:44:30;;;;;;;13.60;8.05;;;8.80;99.90;;;;;;4939364;29;20038;-90
2023/04/10 03:46:57;;;;;;;17.38;9.07;;;8.80;99.90;;;;;;4933014;29;20048;-92
2023/04/10 03:49:24;;;;;;;17.20;9.25;;;8.80;99.90;;;;;;4904721;29;20488;-89
2023/04/10 03:51:56;;;;;;;13.85;8.73;;;8.90;99.90;;;;;;4936348;29;20441;-89
2023/04/10 03:54:22;;;;;;;16.90;9.77;;;8.80;99.90;;;;;;4936329;29;20150;-89
2023/04/10 03:56:49;;;;;;;13.88;8.93;;;8.80;99.90;;;;;;4939158;29;20027;-91
2023/04/10 03:59:16;;;;;;;15.35;8.90;;;8.80;99.90;;;;;;4923781;29;20047;-90
2023/04/10 04:01:43;;;;;;;15.55;9.05;;;8.80;99.90;;;;;;4907748;29;20118;-89
2023/04/10 04:04:10;;;;;;;15.55;9.80;;;8.80;99.90;;;;;;4942350;29;20082;-91
2023/04/10 04:06:57;;;;;;;16.23;10.02;;;8.90;99.90;;;;;;4904966;29;20080;-92
2023/04/10 04:09:43;;;;;;;15.48;9.13;;;8.80;99.90;;;;;;4921005;29;20456;-90
2023/04/10 04:12:28;;;;;;;13.82;9.40;;;8.80;99.90;;;;;;4920750;29;20051;-91
2023/04/10 04:15:02;;;;;;;14.70;9.15;;;8.90;99.90;;;;;;4936009;29;20036;-89
2023/04/10 04:17:47;;;;;;;15.85;9.80;;;8.80;99.90;;;;;;4941290;29;20523;-89
2023/04/10 04:20:35;;;;;;;15.38;9.00;;;8.90;99.90;;;;;;4910095;29;20033;-91
2023/04/10 04:23:13;;;;;;;12.25;8.63;;;8.80;99.90;;;;;;4923272;29;20130;-89
2023/04/10 04:25:59;;;;;;;13.27;8.40;;;8.80;99.90;;;;;;4922291;29;20031;-90
2023/04/10 04:28:46;;;;;;;13.30;8.35;;;8.80;99.90;;;;;;4926168;29;20127;-90
2023/04/10 04:31:23;;;;;;;13.70;7.97;;;8.80;99.90;;;;;;4924486;29;20039;-90
2023/04/10 04:34:10;;;;;;;10.88;7.65;;;8.80;99.90;;;;;;4926027;29;20485;-90
2023/04/10 04:36:39;;;;;;;10.52;7.35;;;8.90;99.90;;;;;;4929134;29;20102;-91
2023/04/10 04:39:38;;;;;;;12.77;8.18;;;8.90;99.90;;;;;;4930911;29;20099;-90
2023/04/10 04:42:34;;;;;;;13.98;8.13;;;9.00;99.90;;;;;;4940232;29;20039;-91
2023/04/10 04:45:20;;;;;;;14.15;8.45;;;9.00;99.90;;;;;;4927069;29;20400;-92
2023/04/10 04:48:07;;;;;;;16.17;10.20;;;9.00;99.90;;;;;;4940537;29;20050;-90
2023/04/10 04:50:55;;;;;;;13.75;8.95;;;9.10;99.90;;;;;;4939261;29;20062;-90
2023/04/10 04:54:00;;;;;;;13.95;9.48;;;9.20;99.90;;;;;;4881296;29;20045;-90
2023/04/10 04:56:37;;;;;;;15.70;9.93;;;9.20;99.90;;;;;;4866760;29;20029;-91
2023/04/10 04:59:24;;;;;;;16.95;10.32;;;9.30;99.90;;;;;;4906772;29;20032;-90
2023/04/10 05:02:05;;;;;;;16.02;10.43;;;9.30;99.90;;;;;;4908422;29;20413;-90
2023/04/10 05:04:52;;;;;;;17.17;10.65;;;9.30;99.90;;;;;;4896404;29;20039;-90
2023/04/10 05:07:38;;;;;;;15.60;9.90;;;9.30;99.90;;;;;;4923168;29;20032;-90
2023/04/10 05:10:15;;;;;;;18.35;10.43;;;9.40;99.90;;;;;;4939499;29;20028;-91
2023/04/10 05:13:00;;;;;;;17.13;10.32;;;9.40;99.90;;;;;;4925200;29;20062;-89
2023/04/10 05:15:45;;;;;;;15.32;10.40;;;9.40;99.90;;;;;;4925078;29;20409;-89
2023/04/10 05:18:35;;;;;;;15.30;10.80;;;9.50;99.90;;;;;;4937993;29;20032;-91
2023/04/10 05:21:31;;;;;;;16.40;11.07;;;9.60;99.90;;;;;;4937553;29;20051;-91
2023/04/10 05:24:21;;;;;;;18.15;11.35;;;9.70;99.90;;;;;;4941497;29;20052;-91
2023/04/10 05:27:14;;;;;;;16.27;11.18;;;9.90;99.90;;;;;;4932678;29;20028;-91
2023/04/10 05:30:01;;;;;;;19.38;11.13;;;9.90;99.90;;;;;;4895958;29;20035;-91
2023/04/10 05:32:41;;;;;;;19.50;11.18;;;9.90;99.90;;;;;;4908016;29;20024;-91
2023/04/10 05:35:31;;;;;;;19.27;11.38;;;10.00;99.90;;;;;;4926777;29;20067;-93
2023/04/10 05:38:09;;;;;;;18.10;11.50;;;10.00;99.90;;;;;;4925560;29;20507;-93
2023/04/10 05:40:51;;;;;;;19.13;12.55;;;10.00;99.90;;;;;;4922572;29;20044;-90
2023/04/10 05:43:39;;;;;;;20.98;11.50;;;10.10;99.90;;;;;;4937843;29;20036;-91
2023/04/10 05:46:21;;;;;;;17.88;11.55;;;10.10;99.90;;;;;;4937663;29;20531;-91
2023/04/10 05:49:06;;;;;;;17.42;11.20;;;10.10;99.90;;;;;;4925069;29;20092;-92
2023/04/10 05:51:32;;;;;;;15.30;11.25;;;10.10;99.90;;;;;;4922117;29;20066;-90
2023/04/10 05:54:17;;;;;;;20.20;11.98;;;10.20;99.90;;;;;;4901690;29;20036;-91
2023/04/10 05:57:12;;;;;;;16.45;12.00;;;10.30;99.90;;;;;;4925365;29;20091;-91
2023/04/10 05:59:59;;;;;;;16.15;11.57;;;10.30;99.90;;;;;;4925452;29;20070;-90
2023/04/10 06:03:02;;;;;;;15.18;11.15;;;10.30;99.90;;;;;;4926118;29;20505;-90
2023/04/10 06:05:30;;;;;;;17.50;11.63;;;10.30;99.90;;;;;;4937384;29;20035;-91
2023/04/10 06:08:02;;;;;;;15.25;10.75;;;10.40;99.90;;;;;;4921165;29;20056;-92
2023/04/10 06:10:31;;;;;;;15.35;10.30;;;10.30;99.90;;;;;;4936804;29;20038;-90
2023/04/10 06:12:58;;;;;;;14.50;9.95;;;10.20;99.90;;;;;;4936910;29;20074;-90
2023/04/10 06:15:25;;;;;;;16.45;9.90;;;10.20;99.90;;;;;;4905407;29;20051;-90
2023/04/10 06:17:52;;;;;;;15.90;9.60;;;10.20;99.90;;;;;;4921223;29;20039;-90
2023/04/10 06:20:19;;;;;;;13.27;8.98;;;10.20;99.90;;;;;;4905598;29;20035;-90
2023/04/10 06:22:46;;;;;;;13.88;8.75;;;10.30;99.90;;;;;;4920979;29;20118;-88
2023/04/10 06:25:13;;;;;;;16.35;8.20;;;10.30;99.90;;;;;;4905334;29;20024;-92
2023/04/10 06:27:42;;;;;;;11.98;8.48;;;10.50;99.90;;;;;;4921321;29;20122;-90
2023/04/10 06:30:10;;;;;;;14.32;9.27;;;10.50;99.90;;;;;;4956678;29;20051;-89
2023/04/10 06:32:37;;;;;;;11.65;8.85;;;10.70;99.90;;;;;;4934807;29;20033;-89
2023/04/10 06:35:05;;;;;;;13.55;8.52;;;10.70;99.90;;;;;;4921260;29;20032;-89
2023/04/10 06:37:31;;;;;;;11.25;8.57;;;10.70;99.90;;;;;;4901506;29;20035;-90
2023/04/10 06:40:08;;;;;;;14.02;8.43;;;10.70;99.90;;;;;;4919432;29;20043;-90
2023/04/10 06:42:36;;;;;;;13.48;8.50;;;10.70;99.90;;;;;;4933548;29;20076;-90
2023/04/10 06:45:14;;;;;;;10.30;8.48;;;10.70;99.90;;;;;;4918705;29;20032;-92
2023/04/10 06:47:41;;;;;;;9.10;8.18;;;11.10;99.90;;;;;;4937069;29;20048;-92
2023/04/10 06:50:08;;;;;;;9.57;7.90;;;11.50;99.90;;;;;;4920634;29;20032;-91
2023/04/10 06:52:34;;;;;;;9.52;8.50;;;11.70;99.90;;;;;;4905022;29;20071;-92
2023/04/10 06:55:01;;;;;;;9.60;8.50;;;11.80;99.90;;;;;;4904544;29;20213;-92
2023/04/10 06:57:28;;;;;;;8.95;8.10;;;12.00;99.90;;;;;;4901209;29;20083;-91
2023/04/10 06:59:55;;;;;;;12.60;11.70;;;12.70;99.90;;;;;;4933706;29;20053;-92
2023/04/10 07:05:47;;;;;;;16.40;15.20;;;14.70;99.90;;;;;;5330231;23;20496;-83
2023/04/10 10:21:33;;;;;;;;;;;;;;;;;;;;;
2023/04/10 10:24:35;;;;;;;13.18;11.90;;;13.20;99.90;;;;;;4970103;28;20055;-91
2023/04/10 10:28:04;;;;;;;14.80;13.40;;;13.00;99.90;;;;;;4957691;23;20056;-92
2023/04/10 10:30:34;;;;;;;14.07;12.98;;;13.10;99.90;;;;;;4923686;29;20043;-91
2023/04/10 13:56:02;;;;;;;20.35;18.45;;;13.80;99.90;;;;;;5596584;23;20108;-92
2023/04/10 13:58:33;;;;;;;21.30;19.50;;;14.00;99.90;;;;;;4967009;28;20031;-92
2023/04/10 14:01:57;;;;;;;20.58;18.67;;;14.10;99.90;;;;;;5175660;23;20066;-93
2023/04/10 14:10:13;;;;;;;21.95;19.80;;;14.40;99.90;;;;;;4982416;28;20042;-92
2023/04/10 14:12:43;;;;;;;21.23;19.17;;;14.40;99.90;;;;;;4956758;28;20050;-89
2023/04/10 14:15:10;;;;;;;19.77;18.35;;;14.40;99.90;;;;;;4955183;28;20484;-91
2023/04/10 14:17:36;;;;;;;19.90;18.30;;;14.50;99.90;;;;;;4942112;28;20020;-90
2023/04/10 14:20:03;;;;;;;20.58;19.08;;;14.50;99.90;;;;;;4949806;28;20031;-90
2023/04/10 14:22:30;;;;;;;21.65;19.63;;;14.50;99.90;;;;;;4926879;28;20066;-90
2023/04/10 14:24:57;;;;;;;21.90;19.88;;;14.70;99.90;;;;;;4924687;28;20392;-92
2023/04/10 14:27:23;;;;;;;20.73;19.13;;;14.90;99.90;;;;;;4948614;28;20539;-89
2023/04/10 14:29:49;;;;;;;19.98;18.48;;;15.10;99.90;;;;;;4949951;28;20030;-90
2023/04/10 14:32:19;;;;;;;20.20;18.60;;;14.90;99.90;;;;;;4930697;28;20023;-89
2023/04/10 14:34:45;;;;;;;20.40;18.65;;;14.70;99.90;;;;;;4948587;28;20042;-93
2023/04/10 14:37:17;;;;;;;20.10;18.42;;;14.50;99.90;;;;;;4950085;28;20093;-91
2023/04/10 14:39:47;;;;;;;20.27;18.67;;;14.60;99.90;;;;;;4944430;28;20119;-91
2023/04/10 14:42:13;;;;;;;20.10;18.60;;;14.50;99.90;;;;;;4948070;28;20035;-91
2023/04/10 14:44:43;;;;;;;20.85;19.25;;;14.70;99.90;;;;;;4951334;28;20484;-90
2023/04/10 14:47:10;;;;;;;21.15;19.58;;;14.70;99.90;;;;;;4946613;28;20087;-92
2023/04/10 14:52:12;;;;;;;20.40;18.77;;;14.70;99.90;;;;;;5275741;23;20047;-90
2023/04/10 14:54:38;;;;;;;19.85;18.20;;;14.70;99.90;;;;;;4932470;28;20037;-91
2023/04/10 14:57:05;;;;;;;18.48;17.10;;;14.80;99.90;;;;;;4934649;28;20022;-91
2023/04/10 15:00:16;;;;;;;18.17;16.90;;;14.70;99.90;;;;;;4925168;28;20062;-91
2023/04/10 15:02:46;;;;;;;18.52;17.13;;;14.60;99.90;;;;;;4948646;23;20051;-92
2023/04/10 15:05:18;;;;;;;19.00;17.42;;;14.60;99.90;;;;;;4949558;28;20031;-90
2023/04/10 15:07:48;;;;;;;19.50;18.00;;;14.40;99.90;;;;;;4950853;28;20424;-93
2023/04/10 15:13:37;;;;;;;20.05;18.13;;;14.20;99.90;;;;;;4921960;29;20093;-94
2023/04/10 15:16:06;;;;;;;18.33;17.10;;;14.20;99.90;;;;;;4897059;29;20036;-93
2023/04/10 15:18:56;;;;;;;20.85;18.98;;;14.20;99.90;;;;;;4884456;29;20032;-93
2023/04/10 15:23:59;;;;;;;52.03;28.85;;;14.40;99.90;;;;;;4962236;28;20511;-93
2023/04/10 15:27:29;;;;;;;51.08;31.30;;;14.40;99.90;;;;;;4957577;28;20121;-94
2023/04/10 15:32:39;;;;;;;37.25;28.58;;;14.60;99.90;;;;;;4962054;28;20075;-93
2023/04/10 15:45:16;;;;;;;20.25;18.25;;;14.50;99.90;;;;;;5075109;23;20058;-93
2023/04/10 15:47:46;;;;;;;;;;;14.60;99.90;;;;;;4977476;28;20415;-93
2023/04/10 15:50:12;;;;;;;20.05;18.13;;;14.90;99.90;;;;;;4980521;28;19909;-92
2023/04/10 15:52:39;;;;;;;19.42;17.58;;;14.90;99.90;;;;;;4978206;28;20033;-92
2023/04/10 15:55:08;;;;;;;20.70;18.80;;;14.60;99.90;;;;;;4976761;28;20026;-92
2023/04/10 15:57:35;;;;;;;19.42;17.73;;;14.70;99.90;;;;;;4972239;28;20042;-92
2023/04/10 16:00:03;;;;;;;19.73;17.77;;;14.60;99.90;;;;;;4974486;28;20045;-93
2023/04/10 16:02:31;;;;;;;19.75;17.88;;;14.60;99.90;;;;;;4993409;28;20105;-92
2023/04/10 16:04:57;;;;;;;18.70;17.25;;;14.60;99.90;;;;;;4977980;28;20057;-91
2023/04/10 16:07:23;;;;;;;18.70;17.05;;;14.50;99.90;;;;;;4979296;28;20364;-92
2023/04/10 16:09:51;;;;;;;19.25;17.40;;;14.40;99.90;;;;;;4978880;28;20090;-90
2023/04/10 16:12:18;;;;;;;18.40;16.85;;;14.40;99.90;;;;;;4993404;28;20062;-92
2023/04/10 16:14:44;;;;;;;17.63;16.00;;;14.20;99.90;;;;;;4975485;28;20025;-93
2023/04/10 16:17:10;;;;;;;17.92;16.23;;;14.10;99.90;;;;;;4991634;28;20414;-93
2023/04/10 16:19:37;;;;;;;17.77;15.55;;;14.00;99.90;;;;;;4971281;28;20105;-93
2023/04/10 16:22:04;;;;;;;16.73;14.80;;;13.80;99.90;;;;;;4994494;28;20035;-91
2023/04/10 16:24:31;;;;;;;15.88;14.02;;;13.80;99.90;;;;;;4981202;28;20060;-91
2023/04/10 16:26:58;;;;;;;15.30;13.45;;;13.60;99.90;;;;;;4999571;28;20120;-94
2023/04/10 16:29:24;;;;;;;14.30;12.45;;;13.50;99.90;;;;;;4988943;28;20035;-92
2023/04/10 16:31:50;;;;;;;14.05;12.02;;;13.50;99.90;;;;;;4981689;28;20022;-92
2023/04/10 16:34:17;;;;;;;12.63;11.20;;;13.40;99.90;;;;;;4994008;28;20050;-92
2023/04/10 16:36:43;;;;;;;12.93;11.73;;;13.30;99.90;;;;;;4976235;28;20018;-91
2023/04/10 16:39:09;;;;;;;12.05;10.73;;;13.30;99.90;;;;;;4970671;28;20057;-94
2023/04/10 16:41:36;;;;;;;11.25;10.20;;;13.20;99.90;;;;;;4969551;28;20530;-92
2023/04/10 16:44:04;;;;;;;11.77;10.38;;;13.10;99.90;;;;;;4977987;28;20018;-87
2023/04/10 16:46:32;;;;;;;11.77;9.68;;;13.20;99.90;;;;;;4971954;28;20030;-88
2023/04/10 16:51:53;;;;;;;11.52;10.38;;;13.10;99.90;;;;;;4927300;29;20103;-90
2023/04/10 16:54:22;;;;;;;11.75;10.52;;;13.10;99.90;;;;;;4908162;29;20036;-90
2023/04/10 16:56:51;;;;;;;13.02;11.82;;;13.10;99.90;;;;;;4912997;29;20120;-90
2023/04/10 16:59:18;;;;;;;12.50;11.40;;;13.10;99.90;;;;;;4897195;29;20036;-87
2023/04/10 17:01:50;;;;;;;13.10;11.95;;;13.10;99.90;;;;;;4918059;29;20127;-90
2023/04/10 17:04:22;;;;;;;12.35;11.05;;;13.00;99.90;;;;;;4917901;29;20087;-91
2023/04/10 17:06:48;;;;;;;13.45;12.25;;;13.10;99.90;;;;;;4916629;29;20036;-92
2023/04/10 17:09:18;;;;;;;13.40;12.30;;;13.00;99.90;;;;;;4916283;29;20036;-87
2023/04/10 17:11:45;;;;;;;13.73;12.55;;;13.00;99.90;;;;;;4915550;29;20486;-88
2023/04/10 17:14:12;;;;;;;14.68;13.23;;;13.00;99.90;;;;;;4915474;29;20566;-88
2023/04/10 17:16:39;;;;;;;13.98;12.73;;;13.00;99.90;;;;;;4915171;29;20029;-88
2023/04/10 17:19:05;;;;;;;14.52;13.23;;;13.00;99.90;;;;;;4899518;29;20044;-90
2023/04/10 17:21:33;;;;;;;14.98;12.85;;;13.00;99.90;;;;;;4915569;29;20123;-87
2023/04/10 17:23:59;;;;;;;16.80;15.05;;;13.00;99.90;;;;;;4915287;29;20487;-89
2023/04/10 17:26:25;;;;;;;16.92;15.18;;;13.00;99.90;;;;;;4901518;29;20037;-89
2023/04/10 17:28:52;;;;;;;14.70;13.30;;;13.00;99.90;;;;;;4900303;29;20036;-90
2023/04/10 17:31:19;;;;;;;18.23;14.05;;;13.00;99.90;;;;;;4915363;29;20032;-92
2023/04/10 17:33:45;;;;;;;14.70;13.13;;;12.90;99.90;;;;;;4916544;29;20061;-87
2023/04/10 17:36:12;;;;;;;13.23;11.93;;;12.90;99.90;;;;;;4900223;29;20029;-90
2023/04/10 17:38:40;;;;;;;14.02;11.98;;;12.90;99.90;;;;;;4912435;29;20025;-91
2023/04/10 17:41:14;;;;;;;17.98;12.77;;;12.90;99.90;;;;;;4885008;29;20120;-89
2023/04/10 17:43:41;;;;;;;14.85;11.68;;;12.80;99.90;;;;;;4899474;29;20048;-85
2023/04/10 17:46:15;;;;;;;14.10;12.25;;;12.70;99.90;;;;;;4899905;29;20083;-90
2023/04/10 17:48:45;;;;;;;16.27;11.35;;;12.70;99.90;;;;;;4918310;29;20036;-88
2023/04/10 17:51:11;;;;;;;20.17;11.10;;;12.60;99.90;;;;;;4915658;29;20047;-86
2023/04/10 17:53:37;;;;;;;11.40;10.02;;;12.50;99.90;;;;;;4934110;29;20043;-88
2023/04/10 17:56:06;;;;;;;16.27;11.73;;;12.40;99.90;;;;;;4934051;29;20096;-84
2023/04/10 17:58:32;;;;;;;18.65;11.38;;;12.40;99.90;;;;;;4933987;29;20036;-88
2023/04/10 18:00:59;;;;;;;13.77;10.52;;;12.20;99.90;;;;;;4933900;29;20071;-88
2023/04/10 18:03:25;;;;;;;13.20;10.65;;;12.00;99.90;;;;;;4934071;29;20038;-88
2023/04/10 18:05:52;;;;;;;11.70;9.48;;;11.80;99.90;;;;;;4933708;29;20490;-88
2023/04/10 18:08:18;;;;;;;15.25;9.93;;;11.70;99.90;;;;;;4918239;29;20039;-88
2023/04/10 18:10:45;;;;;;;15.23;9.73;;;11.80;99.90;;;;;;4918271;29;20031;-89
2023/04/10 18:13:12;;;;;;;11.10;8.98;;;11.70;99.90;;;;;;4918447;29;20031;-90
2023/04/10 18:15:38;;;;;;;10.10;8.50;;;11.70;99.90;;;;;;4917539;29;20055;-89
2023/04/10 18:18:04;;;;;;;14.95;9.95;;;11.80;99.90;;;;;;4917774;29;20040;-88
2023/04/10 18:20:31;;;;;;;12.98;9.73;;;11.80;99.90;;;;;;4917609;29;20036;-87
2023/04/10 18:22:57;;;;;;;28.13;11.27;;;11.80;99.90;;;;;;4917554;29;20055;-86
2023/04/10 18:25:23;;;;;;;18.33;11.70;;;11.80;99.90;;;;;;4934052;29;20028;-86
2023/04/10 18:27:51;;;;;;;14.85;9.98;;;11.80;99.90;;;;;;4933286;29;20119;-87
2023/04/10 18:30:18;;;;;;;20.15;11.00;;;11.80;99.90;;;;;;4917508;29;20024;-84
2023/04/10 18:32:50;;;;;;;20.65;12.20;;;11.70;99.90;;;;;;4933185;29;20494;-87
2023/04/10 18:35:17;;;;;;;16.42;11.50;;;11.70;99.90;;;;;;4933237;29;20055;-86
2023/04/10 18:37:44;;;;;;;32.53;16.92;;;11.70;99.90;;;;;;4933148;29;20032;-88
2023/04/10 18:40:10;;;;;;;16.98;11.15;;;11.70;99.90;;;;;;4933568;29;20468;-85
2023/04/10 18:42:36;;;;;;;14.73;9.73;;;11.80;99.90;;;;;;4932638;29;20047;-83
2023/04/10 18:45:03;;;;;;;15.80;9.57;;;11.80;99.90;;;;;;4916714;29;20028;-84
2023/04/10 18:47:29;;;;;;;34.60;22.08;;;11.90;99.90;;;;;;4916904;29;20028;-83
2023/04/10 18:49:56;;;;;;;17.48;12.68;;;11.80;99.90;;;;;;4931890;29;20063;-84
2023/04/10 18:52:23;;;;;;;25.70;16.92;;;11.90;99.90;;;;;;4932596;29;20043;-84
2023/04/10 18:54:53;;;;;;;16.45;11.65;;;11.90;99.90;;;;;;4917050;29;20123;-86
2023/04/10 18:57:19;;;;;;;19.35;13.07;;;11.90;99.90;;;;;;4932963;29;20111;-85
2023/04/10 18:59:45;;;;;;;17.10;11.93;;;11.90;99.90;;;;;;4932824;29;20482;-87
2023/04/10 19:02:12;;;;;;;22.88;11.68;;;11.80;99.90;;;;;;4932301;29;20040;-84
2023/04/10 19:04:38;;;;;;;17.25;10.38;;;11.90;99.90;;;;;;4932842;29;20104;-85
2023/04/10 19:07:05;;;;;;;14.63;9.82;;;11.80;99.90;;;;;;4932877;29;20031;-85
2023/04/10 19:09:32;;;;;;;16.75;11.25;;;11.80;99.90;;;;;;4916781;29;20028;-83
2023/04/10 22:00:51;;;;;;;11.52;7.85;;;12.20;99.90;;;;;;5841674;23;20056;-92
2023/04/10 22:03:18;;;;;;;14.00;7.63;;;12.10;99.90;;;;;;4902169;29;20106;-89
2023/04/10 22:05:46;;;;;;;14.35;7.25;;;12.10;99.90;;;;;;4886883;29;20478;-90
2023/04/10 22:08:13;;;;;;;11.63;7.72;;;12.10;99.90;;;;;;4887086;29;20039;-92
2023/04/10 22:10:46;;;;;;;9.32;7.85;;;12.00;99.90;;;;;;4964528;23;20138;-74
2023/04/10 22:13:17;;;;;;;16.80;7.50;;;12.00;99.90;;;;;;4902674;29;20024;-86
2023/04/10 22:15:43;;;;;;;19.27;7.68;;;12.00;99.90;;;;;;4917835;29;20032;-82
2023/04/10 22:18:13;;;;;;;13.90;7.65;;;12.00;99.90;;;;;;4917880;29;20024;-86
2023/04/10 22:20:40;;;;;;;11.10;7.47;;;11.90;99.90;;;;;;4902475;29;20036;-87
2023/04/10 22:23:15;;;;;;;11.10;7.85;;;11.90;99.90;;;;;;4918106;29;20040;-86
2023/04/10 22:25:42;;;;;;;16.23;7.78;;;11.90;99.90;;;;;;4918201;29;20065;-86
2023/04/10 22:28:09;;;;;;;16.83;7.75;;;11.90;99.90;;;;;;4917915;29;20107;-87
2023/04/10 22:30:38;;;;;;;13.48;7.70;;;11.80;99.90;;;;;;4917819;29;20429;-86
2023/04/10 22:33:05;;;;;;;11.20;8.32;;;11.80;99.90;;;;;;4920181;29;20028;-86
2023/04/10 22:35:35;;;;;;;17.45;8.75;;;11.80;99.90;;;;;;4921050;29;20536;-85
2023/04/10 22:38:06;;;;;;;14.93;9.65;;;11.80;99.90;;;;;;4917520;29;20039;-85
2023/04/10 22:40:33;;;;;;;12.15;9.63;;;11.80;99.90;;;;;;4933041;29;20032;-86
2023/04/10 22:43:00;;;;;;;16.20;10.48;;;11.80;99.90;;;;;;4917946;29;20040;-85
2023/04/10 22:45:29;;;;;;;22.55;11.25;;;11.70;99.90;;;;;;4922183;29;20032;-87
2023/04/10 22:47:55;;;;;;;19.85;11.38;;;11.70;99.90;;;;;;4923462;29;20039;-87
2023/04/10 22:50:22;;;;;;;15.40;11.27;;;11.60;99.90;;;;;;4905043;29;20029;-91
2023/04/10 22:52:49;;;;;;;17.80;12.32;;;11.60;99.90;;;;;;4918026;29;20028;-88
2023/04/10 22:55:15;;;;;;;17.20;12.35;;;11.70;99.90;;;;;;4902873;29;20058;-87
2023/04/10 22:57:48;;;;;;;18.67;12.80;;;11.60;99.90;;;;;;4886130;29;20032;-88
2023/04/10 23:00:15;;;;;;;15.77;12.65;;;11.60;99.90;;;;;;4917095;29;20024;-87
2023/04/10 23:02:41;;;;;;;23.33;14.13;;;11.60;99.90;;;;;;4901444;29;20040;-89